Time;durP1;ratioP1;P1;durP2;ratioP2;P2;SDS_P1;SDS_P2;PMS_P1;PMS_P2;Temp;Humidity;BMP_temperature;BMP_pressure;BME280_temperature;BME280_humidity;BME280_pressure;Samples;Min_cycle;Max_cycle;Signal;HPM_P1;HPM_P2
2022/12/30 00:01:40;;;;;;;16.67;7.30;;;;;;;;;;5053358;28;20065;-41
2022/12/30 00:04:05;;;;;;;17.35;8.07;;;;;;;;;;5051801;28;20029;-41
2022/12/30 00:06:31;;;;;;;17.35;7.75;;;;;;;;;;5053151;28;20119;-41
2022/12/30 00:08:57;;;;;;;19.98;6.43;;;;;;;;;;5053379;28;20017;-41
2022/12/30 00:11:24;;;;;;;18.42;7.63;;;;;;;;;;5053294;28;20044;-41
2022/12/30 00:33:23;;;;;;;21.52;7.93;;;;;;;;;;5052688;28;20156;-42
2022/12/30 00:35:49;;;;;;;17.45;7.22;;;;;;;;;;5052996;28;20106;-41
2022/12/30 00:38:14;;;;;;;19.90;6.25;;;;;;;;;;5051362;28;20466;-41
2022/12/30 00:43:07;;;;;;;14.65;5.35;;;;;;;;;;5052819;28;20163;-41
2022/12/30 00:43:25;;;;;;;13.48;6.32;;;;;;;;;;5052781;28;20098;-41
2022/12/30 00:45:50;;;;;;;13.35;7.53;;;;;;;;;;5052405;28;20072;-41
2022/12/30 00:56:27;;;;;;;15.40;5.75;;;;;;;;;;5052213;28;20099;-41
2022/12/30 00:58:53;;;;;;;19.52;6.97;;;;;;;;;;5052167;28;20036;-41
2022/12/30 01:01:18;;;;;;;15.93;7.10;;;;;;;;;;5052055;28;20029;-41
2022/12/30 01:03:43;;;;;;;15.13;6.32;;;;;;;;;;5052091;28;20108;-41
2022/12/30 01:06:09;;;;;;;17.08;5.78;;;;;;;;;;5052122;28;20371;-41
2022/12/30 01:08:35;;;;;;;18.10;7.53;;;;;;;;;;5052027;28;20020;-41
2022/12/30 01:11:07;;;;;;;13.93;7.50;;;;;;;;;;5051966;28;20025;-41
2022/12/30 01:13:32;;;;;;;17.70;6.10;;;;;;;;;;5051868;28;20064;-43
2022/12/30 01:16:05;;;;;;;11.55;5.65;;;;;;;;;;5051798;28;20073;-41
2022/12/30 01:18:30;;;;;;;17.17;6.93;;;;;;;;;;5051828;28;20072;-41
2022/12/30 01:20:58;;;;;;;13.30;6.47;;;;;;;;;;5052043;28;20029;-41
2022/12/30 01:23:23;;;;;;;18.55;7.07;;;;;;;;;;5051728;28;20029;-41
2022/12/30 01:25:49;;;;;;;14.98;6.03;;;;;;;;;;5051485;28;20147;-42
2022/12/30 01:28:14;;;;;;;16.73;6.78;;;;;;;;;;5052046;28;20387;-41
2022/12/30 01:30:39;;;;;;;11.68;5.90;;;;;;;;;;5051572;28;20029;-41
2022/12/30 01:33:05;;;;;;;11.43;5.65;;;;;;;;;;5051578;28;20021;-41
2022/12/30 01:35:31;;;;;;;14.02;6.32;;;;;;;;;;5051552;28;20024;-41
2022/12/30 01:37:57;;;;;;;10.60;4.85;;;;;;;;;;5051652;28;20299;-41
2022/12/30 01:40:22;;;;;;;7.22;4.60;;;;;;;;;;5051614;28;20025;-41
2022/12/30 01:42:47;;;;;;;6.75;4.03;;;;;;;;;;5050114;28;20524;-41
2022/12/30 01:45:16;;;;;;;6.03;3.83;;;;;;;;;;5051729;28;20083;-41
2022/12/30 01:47:59;;;;;;;6.88;4.22;;;;;;;;;;5051789;28;20040;-41
2022/12/30 01:50:31;;;;;;;10.35;4.55;;;;;;;;;;5051736;28;20029;-41
2022/12/30 01:53:26;;;;;;;7.95;5.00;;;;;;;;;;5051551;28;20043;-41
2022/12/30 01:55:57;;;;;;;10.93;4.80;;;;;;;;;;5050393;28;20067;-42
2022/12/30 01:58:29;;;;;;;6.65;3.72;;;;;;;;;;5051512;28;20055;-41
2022/12/30 02:00:54;;;;;;;7.72;4.57;;;;;;;;;;5051285;28;20035;-41
2022/12/30 02:03:23;;;;;;;10.63;4.35;;;;;;;;;;5051430;28;20016;-41
2022/12/30 02:05:49;;;;;;;9.07;4.53;;;;;;;;;;5051060;28;20487;-41
2022/12/30 02:08:18;;;;;;;9.32;3.83;;;;;;;;;;5051533;28;20055;-41
2022/12/30 02:10:46;;;;;;;9.52;4.43;;;;;;;;;;5051277;28;20032;-41
2022/12/30 02:13:15;;;;;;;12.10;5.38;;;;;;;;;;5051156;28;20059;-41
2022/12/30 02:15:52;;;;;;;5.35;3.88;;;;;;;;;;5051335;28;20126;-42
2022/12/30 02:18:37;;;;;;;6.15;3.28;;;;;;;;;;5051190;28;20041;-41
2022/12/30 02:21:06;;;;;;;11.77;4.57;;;;;;;;;;5049587;28;20040;-41
2022/12/30 02:23:57;;;;;;;8.38;4.65;;;;;;;;;;5051295;28;20029;-41
2022/12/30 02:26:46;;;;;;;12.40;4.80;;;;;;;;;;5041742;28;20406;-41
2022/12/30 02:29:36;;;;;;;8.27;3.70;;;;;;;;;;5050401;28;20087;-41
2022/12/30 02:32:10;;;;;;;5.22;3.35;;;;;;;;;;5050975;28;20752;-41
2022/12/30 02:34:44;;;;;;;8.20;4.22;;;;;;;;;;5050931;28;20029;-41
2022/12/30 02:37:14;;;;;;;6.50;4.07;;;;;;;;;;5051754;28;20145;-41
2022/12/30 02:39:39;;;;;;;8.95;5.18;;;;;;;;;;5054860;28;20528;-41
2022/12/30 02:45:02;;;;;;;4.95;3.47;;;;;;;;;;5054688;28;20359;-41
2022/12/30 02:47:49;;;;;;;5.80;3.38;;;;;;;;;;5054705;28;20428;-41
2022/12/30 02:53:03;;;;;;;6.07;2.60;;;;;;;;;;5054485;28;20037;-41
2022/12/30 02:55:28;;;;;;;7.47;3.63;;;;;;;;;;5054381;28;20069;-41
2022/12/30 02:57:53;;;;;;;7.95;4.45;;;;;;;;;;5054421;28;20068;-41
2022/12/30 03:06:00;;;;;;;8.60;3.85;;;;;;;;;;5054324;28;20505;-41
2022/12/30 03:08:28;;;;;;;8.07;4.00;;;;;;;;;;5054564;28;20075;-41
2022/12/30 03:11:12;;;;;;;8.38;4.18;;;;;;;;;;5054472;28;20374;-41
2022/12/30 03:13:42;;;;;;;4.95;3.45;;;;;;;;;;5054463;28;20021;-41
2022/12/30 03:16:19;;;;;;;6.38;3.90;;;;;;;;;;5054242;28;20055;-41
2022/12/30 03:18:45;;;;;;;4.75;2.63;;;;;;;;;;5054388;28;20025;-41
2022/12/30 03:21:11;;;;;;;7.15;3.83;;;;;;;;;;5053071;28;20410;-41
2022/12/30 03:29:10;;;;;;;4.95;2.97;;;;;;;;;;5053849;28;20483;-41
2022/12/30 03:31:35;;;;;;;8.68;4.55;;;;;;;;;;5053802;28;20020;-41
2022/12/30 03:34:01;;;;;;;5.25;3.17;;;;;;;;;;5053635;28;20025;-41
2022/12/30 03:36:28;;;;;;;4.30;2.80;;;;;;;;;;5053793;28;20043;-41
2022/12/30 03:38:58;;;;;;;9.43;4.07;;;;;;;;;;5053837;28;20119;-42
2022/12/30 03:41:24;;;;;;;6.72;3.35;;;;;;;;;;5053997;28;20370;-41
2022/12/30 03:43:50;;;;;;;7.70;2.95;;;;;;;;;;5053799;28;20017;-41
2022/12/30 03:46:17;;;;;;;9.60;4.20;;;;;;;;;;5053891;28;20041;-42
2022/12/30 03:48:43;;;;;;;6.80;3.45;;;;;;;;;;5053257;28;20020;-42
2022/12/30 03:51:08;;;;;;;6.50;3.63;;;;;;;;;;5053458;28;20040;-41
2022/12/30 03:53:33;;;;;;;6.30;3.67;;;;;;;;;;5053758;28;20020;-41
2022/12/30 03:55:59;;;;;;;5.10;2.75;;;;;;;;;;5053059;28;20053;-41
2022/12/30 03:58:24;;;;;;;6.28;3.65;;;;;;;;;;5053340;28;20037;-42
2022/12/30 04:00:50;;;;;;;6.82;3.03;;;;;;;;;;5052003;28;20041;-41
2022/12/30 04:03:15;;;;;;;4.15;2.83;;;;;;;;;;5051985;28;20025;-41
2022/12/30 04:05:41;;;;;;;4.22;2.70;;;;;;;;;;5053241;28;20037;-41
2022/12/30 04:08:06;;;;;;;6.13;3.38;;;;;;;;;;5053115;28;20036;-41
2022/12/30 04:10:32;;;;;;;8.13;3.53;;;;;;;;;;5053160;28;20090;-41
2022/12/30 04:12:57;;;;;;;7.70;3.97;;;;;;;;;;5051691;28;20017;-41
2022/12/30 04:15:22;;;;;;;6.80;3.55;;;;;;;;;;5053028;28;20029;-41
2022/12/30 04:17:48;;;;;;;7.72;3.45;;;;;;;;;;5051732;28;20053;-41
2022/12/30 04:20:13;;;;;;;4.90;3.00;;;;;;;;;;5052982;28;20056;-41
2022/12/30 04:22:38;;;;;;;8.98;4.07;;;;;;;;;;5052952;28;20021;-41
2022/12/30 04:25:04;;;;;;;7.93;4.05;;;;;;;;;;5053187;28;20031;-41
2022/12/30 04:27:29;;;;;;;9.00;4.43;;;;;;;;;;5052887;28;20104;-41
2022/12/30 04:29:54;;;;;;;6.75;3.15;;;;;;;;;;5052985;28;20086;-41
2022/12/30 04:32:20;;;;;;;8.20;3.63;;;;;;;;;;5052723;28;20537;-41
2022/12/30 04:34:45;;;;;;;5.78;2.88;;;;;;;;;;5053090;28;20029;-42
2022/12/30 04:37:11;;;;;;;8.07;3.28;;;;;;;;;;5051327;28;20035;-42
2022/12/30 04:39:36;;;;;;;8.90;3.95;;;;;;;;;;5052626;28;20032;-42
2022/12/30 04:42:01;;;;;;;4.25;2.72;;;;;;;;;;5052642;28;20024;-41
2022/12/30 04:44:27;;;;;;;6.72;3.13;;;;;;;;;;5052562;28;20518;-41
2022/12/30 04:46:52;;;;;;;12.27;4.07;;;;;;;;;;5052681;28;20036;-41
2022/12/30 04:49:17;;;;;;;7.20;4.45;;;;;;;;;;5052603;28;20090;-41
2022/12/30 04:51:43;;;;;;;7.40;3.17;;;;;;;;;;5052608;28;20020;-41
2022/12/30 04:54:08;;;;;;;11.35;4.30;;;;;;;;;;5052470;28;20563;-41
2022/12/30 04:56:33;;;;;;;7.78;3.67;;;;;;;;;;5052015;28;20572;-42
2022/12/30 04:58:59;;;;;;;6.85;4.13;;;;;;;;;;5052426;28;20032;-41
2022/12/30 05:01:24;;;;;;;8.95;3.45;;;;;;;;;;5051687;28;20033;-42
2022/12/30 05:03:49;;;;;;;10.30;3.53;;;;;;;;;;5051920;28;20075;-41
2022/12/30 05:06:15;;;;;;;7.35;4.05;;;;;;;;;;5052347;28;20131;-41
2022/12/30 05:08:40;;;;;;;7.55;3.20;;;;;;;;;;5052086;28;20028;-41
2022/12/30 05:11:05;;;;;;;10.43;3.83;;;;;;;;;;5052018;28;20100;-41
2022/12/30 05:13:31;;;;;;;11.32;4.10;;;;;;;;;;5051918;28;20039;-41
2022/12/30 05:15:56;;;;;;;8.82;3.65;;;;;;;;;;5051817;28;20029;-41
2022/12/30 05:18:21;;;;;;;10.63;3.95;;;;;;;;;;5052082;28;20036;-41
2022/12/30 05:20:47;;;;;;;7.35;3.83;;;;;;;;;;5052167;28;20360;-41
2022/12/30 05:26:15;;;;;;;5.72;3.60;;;;;;;;;;5051675;28;20383;-41
2022/12/30 05:28:41;;;;;;;5.30;3.20;;;;;;;;;;5051701;28;20063;-41
2022/12/30 05:31:06;;;;;;;8.57;3.47;;;;;;;;;;5051575;28;20057;-41
2022/12/30 05:33:31;;;;;;;11.07;3.08;;;;;;;;;;5051885;28;20438;-41
2022/12/30 05:35:57;;;;;;;9.48;4.30;;;;;;;;;;5051394;28;20142;-41
2022/12/30 05:38:22;;;;;;;6.25;3.38;;;;;;;;;;5050406;28;20036;-41
2022/12/30 05:40:47;;;;;;;9.35;3.22;;;;;;;;;;5051532;28;20027;-41
2022/12/30 05:43:13;;;;;;;6.40;4.05;;;;;;;;;;5051708;28;20037;-41
2022/12/30 05:45:38;;;;;;;10.98;4.35;;;;;;;;;;5051481;28;20021;-42
2022/12/30 05:48:04;;;;;;;7.38;3.63;;;;;;;;;;5051623;28;20111;-41
2022/12/30 05:50:29;;;;;;;12.05;5.25;;;;;;;;;;5051707;28;20028;-41
2022/12/30 05:52:58;;;;;;;8.18;4.10;;;;;;;;;;5051531;28;20072;-41
2022/12/30 05:55:23;;;;;;;5.35;3.15;;;;;;;;;;5051172;28;20394;-41
2022/12/30 05:57:49;;;;;;;14.85;5.28;;;;;;;;;;5051348;28;20029;-41
2022/12/30 06:00:14;;;;;;;6.97;3.08;;;;;;;;;;5051299;28;20036;-42
2022/12/30 06:02:40;;;;;;;10.82;4.38;;;;;;;;;;5051302;28;20029;-41
2022/12/30 06:05:05;;;;;;;8.15;3.78;;;;;;;;;;5051505;28;20060;-41
2022/12/30 06:07:30;;;;;;;11.00;4.75;;;;;;;;;;5051227;28;20029;-41
2022/12/30 06:09:56;;;;;;;7.25;3.10;;;;;;;;;;5051264;28;20025;-41
2022/12/30 06:12:21;;;;;;;13.82;4.43;;;;;;;;;;5053650;28;20056;-41
2022/12/30 06:14:47;;;;;;;11.15;4.90;;;;;;;;;;5055262;28;20037;-41
2022/12/30 06:17:12;;;;;;;7.47;3.20;;;;;;;;;;5055579;28;20069;-41
2022/12/30 06:19:37;;;;;;;14.75;4.22;;;;;;;;;;5055219;28;20020;-41
2022/12/30 06:22:03;;;;;;;9.25;4.50;;;;;;;;;;5055137;28;20029;-42
2022/12/30 06:24:28;;;;;;;10.45;3.78;;;;;;;;;;5055193;28;20032;-42
2022/12/30 06:26:54;;;;;;;11.90;5.43;;;;;;;;;;5053761;28;20029;-41
2022/12/30 06:29:19;;;;;;;10.25;4.05;;;;;;;;;;5055021;28;20012;-42
2022/12/30 06:31:44;;;;;;;20.17;5.20;;;;;;;;;;5055019;28;20052;-41
2022/12/30 06:34:10;;;;;;;8.15;3.75;;;;;;;;;;5054946;28;20028;-42
2022/12/30 06:36:35;;;;;;;9.88;4.68;;;;;;;;;;5054773;28;20033;-41
2022/12/30 06:39:00;;;;;;;13.18;4.22;;;;;;;;;;5053593;28;20024;-41
2022/12/30 06:41:26;;;;;;;13.32;4.55;;;;;;;;;;5054859;28;20047;-41
2022/12/30 06:43:51;;;;;;;19.65;6.45;;;;;;;;;;5054695;28;20053;-41
2022/12/30 06:46:16;;;;;;;8.05;4.28;;;;;;;;;;5054876;28;20110;-41
2022/12/30 06:48:42;;;;;;;14.55;5.72;;;;;;;;;;5054710;28;20494;-41
2022/12/30 06:51:07;;;;;;;14.60;5.03;;;;;;;;;;5054782;28;20029;-41
2022/12/30 06:53:32;;;;;;;15.68;6.30;;;;;;;;;;5054932;28;20029;-41
2022/12/30 06:55:58;;;;;;;15.55;4.90;;;;;;;;;;5053055;28;20049;-41
2022/12/30 06:58:23;;;;;;;12.82;5.53;;;;;;;;;;5054812;28;20083;-42
2022/12/30 07:00:49;;;;;;;14.90;6.25;;;;;;;;;;5054547;28;20633;-41
2022/12/30 07:03:14;;;;;;;14.50;5.38;;;;;;;;;;5054327;28;20023;-41
2022/12/30 07:05:40;;;;;;;15.23;5.85;;;;;;;;;;5054517;28;20067;-41
2022/12/30 07:08:05;;;;;;;16.05;6.22;;;;;;;;;;5054569;28;20438;-41
2022/12/30 07:10:32;;;;;;;16.58;7.32;;;;;;;;;;5054178;28;20060;-41
2022/12/30 07:12:57;;;;;;;14.48;6.82;;;;;;;;;;5054428;28;20028;-41
2022/12/30 07:15:23;;;;;;;20.88;6.32;;;;;;;;;;5054465;28;20391;-41
2022/12/30 07:17:48;;;;;;;13.63;5.75;;;;;;;;;;5054167;28;20028;-41
2022/12/30 07:20:15;;;;;;;12.65;5.28;;;;;;;;;;5054073;28;20532;-41
2022/12/30 07:22:41;;;;;;;20.08;7.75;;;;;;;;;;5052686;28;20374;-40
2022/12/30 07:25:06;;;;;;;15.25;7.18;;;;;;;;;;5053694;28;20271;-41
2022/12/30 07:27:32;;;;;;;24.70;7.68;;;;;;;;;;5054107;28;20078;-42
2022/12/30 07:29:57;;;;;;;19.63;5.93;;;;;;;;;;5052549;28;20309;-41
2022/12/30 07:32:22;;;;;;;23.88;7.97;;;;;;;;;;5053895;28;20463;-41
2022/12/30 07:34:48;;;;;;;25.77;6.03;;;;;;;;;;5053819;28;20391;-41
2022/12/30 07:37:13;;;;;;;17.42;7.07;;;;;;;;;;5054059;28;20017;-42
2022/12/30 07:39:39;;;;;;;18.00;7.25;;;;;;;;;;5053802;28;20483;-41
2022/12/30 07:42:04;;;;;;;17.05;7.45;;;;;;;;;;5053596;28;20021;-41
2022/12/30 07:44:29;;;;;;;17.98;6.15;;;;;;;;;;5053660;28;20032;-41
2022/12/30 07:46:55;;;;;;;19.08;7.45;;;;;;;;;;5053507;28;20044;-41
2022/12/30 07:49:21;;;;;;;14.02;6.88;;;;;;;;;;5053876;28;20070;-41
2022/12/30 07:51:46;;;;;;;14.25;5.65;;;;;;;;;;5053796;28;20103;-41
2022/12/30 07:54:12;;;;;;;13.18;5.90;;;;;;;;;;5053280;28;20037;-41
2022/12/30 07:56:37;;;;;;;9.75;5.00;;;;;;;;;;5053817;28;20053;-41
2022/12/30 07:59:03;;;;;;;12.65;6.35;;;;;;;;;;5053608;28;20028;-42
2022/12/30 08:01:28;;;;;;;10.65;6.03;;;;;;;;;;5053272;28;20525;-41
2022/12/30 08:03:54;;;;;;;16.30;5.85;;;;;;;;;;5053240;28;20052;-41
2022/12/30 08:06:19;;;;;;;13.32;5.40;;;;;;;;;;5053278;28;20067;-41
2022/12/30 08:08:45;;;;;;;11.60;4.72;;;;;;;;;;5053287;28;20025;-41
2022/12/30 08:11:11;;;;;;;12.02;5.93;;;;;;;;;;5053159;28;20127;-41
2022/12/30 08:13:37;;;;;;;13.15;6.35;;;;;;;;;;5053153;28;20025;-41
2022/12/30 08:16:04;;;;;;;13.20;5.32;;;;;;;;;;5053137;28;20449;-41
2022/12/30 08:18:29;;;;;;;11.55;4.93;;;;;;;;;;5053081;28;20530;-41
2022/12/30 08:20:57;;;;;;;11.98;5.68;;;;;;;;;;5052995;28;20075;-41
2022/12/30 08:23:23;;;;;;;11.82;4.00;;;;;;;;;;5053172;28;20440;-41
2022/12/30 08:25:48;;;;;;;16.23;5.05;;;;;;;;;;5052906;28;20126;-41
2022/12/30 08:28:13;;;;;;;13.45;6.13;;;;;;;;;;5053031;28;20033;-40
2022/12/30 08:30:39;;;;;;;13.63;5.82;;;;;;;;;;5052816;28;20039;-41
2022/12/30 08:33:05;;;;;;;7.65;4.70;;;;;;;;;;5052759;28;20061;-40
2022/12/30 08:35:30;;;;;;;12.32;6.00;;;;;;;;;;5051525;28;20059;-41
2022/12/30 08:37:55;;;;;;;10.93;5.70;;;;;;;;;;5052505;28;20041;-40
2022/12/30 08:40:21;;;;;;;13.88;5.90;;;;;;;;;;5052612;28;20029;-40
2022/12/30 08:42:46;;;;;;;14.13;5.78;;;;;;;;;;5052814;28;20037;-41
2022/12/30 08:45:11;;;;;;;20.20;5.20;;;;;;;;;;5052290;28;20505;-41
2022/12/30 08:47:37;;;;;;;15.45;5.40;;;;;;;;;;5052503;28;20473;-41
2022/12/30 08:50:02;;;;;;;12.70;4.60;;;;;;;;;;5052294;28;20021;-41
2022/12/30 08:52:28;;;;;;;8.05;4.70;;;;;;;;;;5052618;28;20032;-41
2022/12/30 08:54:53;;;;;;;12.10;4.80;;;;;;;;;;5051972;28;20119;-41
2022/12/30 08:57:19;;;;;;;4.93;3.70;;;;;;;;;;5052616;28;20187;-41
2022/12/30 08:59:45;;;;;;;8.07;3.90;;;;;;;;;;5052527;28;20455;-40
2022/12/30 09:02:13;;;;;;;8.05;4.93;;;;;;;;;;5052128;28;20182;-41
2022/12/30 09:04:38;;;;;;;7.03;3.60;;;;;;;;;;5052433;28;20029;-41
2022/12/30 09:07:04;;;;;;;14.40;6.07;;;;;;;;;;5052053;28;20083;-41
2022/12/30 09:09:29;;;;;;;14.27;5.82;;;;;;;;;;5052119;28;20467;-41
2022/12/30 09:11:59;;;;;;;5.65;4.22;;;;;;;;;;5052064;28;20028;-41
2022/12/30 09:14:25;;;;;;;13.13;5.32;;;;;;;;;;5051947;28;20353;-40
2022/12/30 09:16:50;;;;;;;16.08;5.78;;;;;;;;;;5051956;28;20147;-41
2022/12/30 09:19:16;;;;;;;10.35;4.88;;;;;;;;;;5052109;28;20017;-40
2022/12/30 09:21:41;;;;;;;13.95;5.35;;;;;;;;;;5051846;28;20398;-41
2022/12/30 09:24:07;;;;;;;14.85;5.40;;;;;;;;;;5051802;28;20017;-43
2022/12/30 09:26:33;;;;;;;15.10;6.03;;;;;;;;;;5050539;28;20065;-41
2022/12/30 09:28:58;;;;;;;10.70;5.50;;;;;;;;;;5051903;28;20104;-41
2022/12/30 09:31:25;;;;;;;18.55;6.20;;;;;;;;;;5052001;28;20471;-40
2022/12/30 09:33:50;;;;;;;22.45;7.05;;;;;;;;;;5051838;28;20041;-41
2022/12/30 09:36:17;;;;;;;11.40;4.72;;;;;;;;;;5050220;28;20519;-40
2022/12/30 09:38:43;;;;;;;10.68;5.90;;;;;;;;;;5051673;28;20827;-40
2022/12/30 09:41:11;;;;;;;13.10;5.68;;;;;;;;;;5051326;28;20052;-41
2022/12/30 09:43:46;;;;;;;13.73;6.25;;;;;;;;;;5050645;28;20103;-41
2022/12/30 09:46:11;;;;;;;6.57;4.03;;;;;;;;;;5051084;28;20029;-41
2022/12/30 09:48:46;;;;;;;13.65;7.10;;;;;;;;;;5050304;28;20028;-40
2022/12/30 09:51:14;;;;;;;13.05;5.18;;;;;;;;;;5051273;28;20025;-41
2022/12/30 09:53:40;;;;;;;13.80;5.88;;;;;;;;;;5051746;28;20025;-41
2022/12/30 09:56:12;;;;;;;15.85;5.32;;;;;;;;;;5050978;28;20045;-41
2022/12/30 09:58:38;;;;;;;10.18;4.97;;;;;;;;;;5051381;28;20044;-41
2022/12/30 10:01:18;;;;;;;9.35;5.38;;;;;;;;;;5051523;28;20032;-41
2022/12/30 10:03:44;;;;;;;18.92;5.28;;;;;;;;;;5051675;28;20025;-41
2022/12/30 10:06:25;;;;;;;15.68;5.63;;;;;;;;;;5051476;28;20020;-40
2022/12/30 10:08:57;;;;;;;13.95;5.07;;;;;;;;;;5051239;28;20124;-41
2022/12/30 10:11:29;;;;;;;14.30;6.05;;;;;;;;;;5051192;28;20025;-41
2022/12/30 10:14:00;;;;;;;13.25;6.10;;;;;;;;;;5051470;28;20399;-41
2022/12/30 10:16:36;;;;;;;12.93;6.22;;;;;;;;;;5051352;28;20116;-41
2022/12/30 10:19:02;;;;;;;14.73;5.60;;;;;;;;;;5051064;28;20383;-40
2022/12/30 10:21:33;;;;;;;14.73;4.95;;;;;;;;;;5051079;28;20021;-40
2022/12/30 10:23:58;;;;;;;11.70;6.20;;;;;;;;;;5050996;28;20479;-41
2022/12/30 10:26:26;;;;;;;13.60;5.65;;;;;;;;;;5051265;28;20143;-41
2022/12/30 10:29:05;;;;;;;10.20;5.05;;;;;;;;;;5051332;28;20037;-41
2022/12/30 10:31:34;;;;;;;10.00;4.55;;;;;;;;;;5050963;28;20467;-40
2022/12/30 10:34:11;;;;;;;9.13;5.22;;;;;;;;;;5050898;28;20017;-41
2022/12/30 10:36:43;;;;;;;8.05;5.18;;;;;;;;;;5050949;28;20037;-40
2022/12/30 10:39:35;;;;;;;9.23;5.80;;;;;;;;;;5050846;28;20083;-41
2022/12/30 10:42:07;;;;;;;6.50;3.67;;;;;;;;;;5050525;28;20088;-41
2022/12/30 10:44:38;;;;;;;10.60;4.90;;;;;;;;;;5051143;28;20033;-41
2022/12/30 10:47:07;;;;;;;8.20;4.78;;;;;;;;;;5051065;28;20106;-41
2022/12/30 10:49:59;;;;;;;8.00;3.75;;;;;;;;;;5050646;28;20024;-42
2022/12/30 10:52:25;;;;;;;5.18;3.33;;;;;;;;;;5050490;28;20079;-41
2022/12/30 10:54:50;;;;;;;7.68;3.72;;;;;;;;;;5049430;28;20494;-41
2022/12/30 10:57:31;;;;;;;10.55;5.15;;;;;;;;;;5050862;28;20069;-41
2022/12/30 10:59:57;;;;;;;8.60;5.45;;;;;;;;;;5054481;28;20376;-41
2022/12/30 11:02:24;;;;;;;9.93;4.57;;;;;;;;;;5054422;28;20135;-41
2022/12/30 11:04:50;;;;;;;9.80;4.18;;;;;;;;;;5053205;28;20052;-41
2022/12/30 11:07:16;;;;;;;9.15;5.40;;;;;;;;;;5054289;28;20013;-41
2022/12/30 11:09:43;;;;;;;12.52;5.15;;;;;;;;;;5054322;28;20033;-41
2022/12/30 11:15:14;;;;;;;7.88;4.45;;;;;;;;;;5052801;28;20037;-41
2022/12/30 11:17:47;;;;;;;8.63;4.63;;;;;;;;;;5054160;28;20474;-41
2022/12/30 11:20:12;;;;;;;6.75;3.95;;;;;;;;;;5054058;28;20044;-41
2022/12/30 11:22:46;;;;;;;5.07;3.53;;;;;;;;;;5054306;28;20025;-42
2022/12/30 11:25:24;;;;;;;6.32;3.65;;;;;;;;;;5054019;28;20471;-41
2022/12/30 11:27:51;;;;;;;5.28;3.55;;;;;;;;;;5054184;28;20520;-41
2022/12/30 11:30:22;;;;;;;4.97;2.72;;;;;;;;;;5054210;28;20062;-41
2022/12/30 11:32:47;;;;;;;8.43;4.68;;;;;;;;;;5053895;28;20479;-41
2022/12/30 11:35:32;;;;;;;8.73;4.30;;;;;;;;;;5053706;28;20051;-41
2022/12/30 11:37:57;;;;;;;6.65;3.55;;;;;;;;;;5053671;28;20044;-41
2022/12/30 11:40:31;;;;;;;8.65;5.43;;;;;;;;;;5054147;28;20017;-41
2022/12/30 11:43:14;;;;;;;9.25;4.22;;;;;;;;;;5053823;28;20049;-41
2022/12/30 11:45:54;;;;;;;6.63;4.75;;;;;;;;;;5053753;28;20112;-41
2022/12/30 11:48:29;;;;;;;7.30;4.40;;;;;;;;;;5053816;28;20055;-42
2022/12/30 11:50:54;;;;;;;6.35;4.38;;;;;;;;;;5053557;28;20037;-41
2022/12/30 11:53:21;;;;;;;7.95;5.07;;;;;;;;;;5052171;28;20024;-41
2022/12/30 11:55:51;;;;;;;8.15;4.93;;;;;;;;;;5053260;28;20109;-41
2022/12/30 11:58:17;;;;;;;6.70;4.57;;;;;;;;;;5053345;28;20040;-41
2022/12/30 12:00:44;;;;;;;7.85;5.07;;;;;;;;;;5053727;28;20110;-41
2022/12/30 12:03:14;;;;;;;7.80;4.00;;;;;;;;;;5053156;28;20098;-42
2022/12/30 12:05:42;;;;;;;6.35;3.05;;;;;;;;;;5053581;28;20036;-41
2022/12/30 12:08:27;;;;;;;7.43;3.83;;;;;;;;;;5053463;28;20032;-41
2022/12/30 12:10:57;;;;;;;12.05;4.75;;;;;;;;;;5052760;28;20044;-41
2022/12/30 12:13:25;;;;;;;7.53;4.20;;;;;;;;;;5053413;28;20374;-41
2022/12/30 12:15:53;;;;;;;6.97;4.15;;;;;;;;;;5053085;28;20049;-41
2022/12/30 12:18:20;;;;;;;9.60;5.88;;;;;;;;;;5053198;28;20024;-41
2022/12/30 12:20:59;;;;;;;8.25;5.60;;;;;;;;;;5052998;28;20033;-41
2022/12/30 12:23:30;;;;;;;6.95;5.28;;;;;;;;;;5053296;28;20025;-41
2022/12/30 12:26:15;;;;;;;10.30;4.90;;;;;;;;;;5053051;28;20036;-41
2022/12/30 12:28:42;;;;;;;7.43;4.40;;;;;;;;;;5052921;28;20596;-41
2022/12/30 12:31:25;;;;;;;11.52;5.25;;;;;;;;;;5052639;28;20109;-41
2022/12/30 12:33:57;;;;;;;10.18;4.50;;;;;;;;;;5052724;28;20033;-41
2022/12/30 12:36:27;;;;;;;7.78;4.50;;;;;;;;;;5052617;28;20048;-41
2022/12/30 12:38:58;;;;;;;7.18;3.88;;;;;;;;;;5052891;28;20368;-41
2022/12/30 12:41:32;;;;;;;8.95;4.63;;;;;;;;;;5052583;28;20040;-41
2022/12/30 12:44:18;;;;;;;8.98;3.67;;;;;;;;;;5052732;28;20044;-41
2022/12/30 12:46:52;;;;;;;10.25;4.38;;;;;;;;;;5052281;28;20045;-41
2022/12/30 12:49:30;;;;;;;8.20;4.88;;;;;;;;;;5052651;28;20033;-41
2022/12/30 12:51:56;;;;;;;9.27;4.72;;;;;;;;;;5052415;28;20025;-41
2022/12/30 12:54:39;;;;;;;8.80;4.38;;;;;;;;;;5052164;28;20017;-41
2022/12/30 12:57:23;;;;;;;5.80;3.60;;;;;;;;;;5052453;28;20124;-41
2022/12/30 13:00:07;;;;;;;8.10;4.22;;;;;;;;;;5051070;28;20112;-41
2022/12/30 13:02:35;;;;;;;6.38;3.70;;;;;;;;;;5052196;28;20017;-41
2022/12/30 13:05:19;;;;;;;8.30;4.03;;;;;;;;;;5052051;28;20021;-41
2022/12/30 13:08:14;;;;;;;8.80;4.43;;;;;;;;;;5052054;28;20037;-41
2022/12/30 13:11:06;;;;;;;11.02;5.53;;;;;;;;;;5051473;28;20471;-42
2022/12/30 13:13:31;;;;;;;9.60;4.43;;;;;;;;;;5050920;28;20047;-42
2022/12/30 13:15:58;;;;;;;8.63;5.75;;;;;;;;;;5051824;28;20045;-41
2022/12/30 13:18:25;;;;;;;9.88;3.95;;;;;;;;;;5051992;28;20033;-41
2022/12/30 13:20:52;;;;;;;11.13;5.10;;;;;;;;;;5051235;28;20056;-41
2022/12/30 13:23:19;;;;;;;13.80;5.93;;;;;;;;;;5052125;28;20037;-41
2022/12/30 13:25:53;;;;;;;17.80;6.38;;;;;;;;;;5052078;28;20025;-41
2022/12/30 13:28:24;;;;;;;13.68;5.88;;;;;;;;;;5051881;28;20060;-41
2022/12/30 13:31:13;;;;;;;12.85;5.25;;;;;;;;;;5051701;28;20033;-41
2022/12/30 13:33:44;;;;;;;12.80;5.63;;;;;;;;;;5052053;28;20430;-41
2022/12/30 13:36:17;;;;;;;6.97;4.03;;;;;;;;;;5051382;28;20048;-40
2022/12/30 13:38:58;;;;;;;13.68;5.50;;;;;;;;;;5051944;28;20388;-42
2022/12/30 13:41:25;;;;;;;11.32;5.18;;;;;;;;;;5051651;28;20491;-41
2022/12/30 13:43:58;;;;;;;11.70;6.68;;;;;;;;;;5051494;28;20032;-41
2022/12/30 13:46:25;;;;;;;17.27;6.47;;;;;;;;;;5050374;28;20032;-40
2022/12/30 13:48:53;;;;;;;14.13;5.85;;;;;;;;;;5051817;28;20146;-41
2022/12/30 13:51:20;;;;;;;16.33;6.75;;;;;;;;;;5051515;28;20029;-41
2022/12/30 13:53:48;;;;;;;12.32;6.22;;;;;;;;;;5051776;28;20094;-42
2022/12/30 13:56:33;;;;;;;12.75;5.35;;;;;;;;;;5051093;28;20090;-41
2022/12/30 13:58:59;;;;;;;11.23;6.65;;;;;;;;;;5050546;28;20041;-41
2022/12/30 14:01:32;;;;;;;8.40;5.50;;;;;;;;;;5051258;28;20032;-41
2022/12/30 14:04:10;;;;;;;17.70;7.03;;;;;;;;;;5049955;28;20067;-41
2022/12/30 14:06:46;;;;;;;16.58;6.22;;;;;;;;;;5051283;28;20474;-41
2022/12/30 14:09:16;;;;;;;14.85;7.10;;;;;;;;;;5051245;28;20025;-41
2022/12/30 14:12:00;;;;;;;15.35;5.65;;;;;;;;;;5051122;28;20099;-41
2022/12/30 14:14:25;;;;;;;12.07;5.75;;;;;;;;;;5051207;28;20029;-42
2022/12/30 14:16:52;;;;;;;8.68;4.60;;;;;;;;;;5051086;28;20040;-41
2022/12/30 14:19:24;;;;;;;15.63;6.40;;;;;;;;;;5051323;28;20033;-41
2022/12/30 14:21:51;;;;;;;12.63;6.35;;;;;;;;;;5051118;28;20033;-41
2022/12/30 14:24:35;;;;;;;13.30;5.82;;;;;;;;;;5051066;28;20096;-41
2022/12/30 14:27:01;;;;;;;10.98;5.60;;;;;;;;;;5051306;28;20033;-41
2022/12/30 14:29:33;;;;;;;14.73;6.07;;;;;;;;;;5051140;28;20113;-41
2022/12/30 14:32:01;;;;;;;10.23;6.10;;;;;;;;;;5051317;28;20036;-41
2022/12/30 14:34:29;;;;;;;14.45;7.10;;;;;;;;;;5055373;28;20025;-41
2022/12/30 14:37:00;;;;;;;12.60;6.60;;;;;;;;;;5054869;28;20044;-40
2022/12/30 14:39:26;;;;;;;7.97;4.65;;;;;;;;;;5054968;28;20017;-41
2022/12/30 14:41:51;;;;;;;8.43;6.20;;;;;;;;;;5054865;28;20474;-41
2022/12/30 14:44:19;;;;;;;16.80;6.70;;;;;;;;;;5055093;28;20047;-41
2022/12/30 14:46:45;;;;;;;10.73;7.00;;;;;;;;;;5055020;28;20036;-41
2022/12/30 14:49:19;;;;;;;11.20;7.43;;;;;;;;;;5054614;28;20025;-41
2022/12/30 14:51:48;;;;;;;10.40;5.82;;;;;;;;;;5054644;28;20120;-41
2022/12/30 14:54:16;;;;;;;13.38;5.05;;;;;;;;;;5054751;28;20048;-41
2022/12/30 14:56:46;;;;;;;11.85;6.68;;;;;;;;;;5054583;28;20079;-41
2022/12/30 14:59:12;;;;;;;11.90;5.32;;;;;;;;;;5054513;28;20032;-42
2022/12/30 15:01:37;;;;;;;9.35;6.47;;;;;;;;;;5054515;28;20386;-41
2022/12/30 15:04:13;;;;;;;8.68;5.10;;;;;;;;;;5054449;28;20029;-41
2022/12/30 15:06:40;;;;;;;11.70;5.90;;;;;;;;;;5054423;28;20048;-41
2022/12/30 15:09:07;;;;;;;24.50;13.63;;;;;;;;;;5052954;28;20027;-41
2022/12/30 15:11:33;;;;;;;12.02;7.15;;;;;;;;;;5054249;28;20021;-41
2022/12/30 15:13:59;;;;;;;12.25;7.10;;;;;;;;;;5054296;28;20443;-41
2022/12/30 15:16:26;;;;;;;14.52;5.93;;;;;;;;;;5052844;28;20513;-41
2022/12/30 15:18:53;;;;;;;10.35;6.00;;;;;;;;;;5054325;28;20025;-41
2022/12/30 15:21:19;;;;;;;10.52;5.93;;;;;;;;;;5054333;28;20036;-42
2022/12/30 15:23:45;;;;;;;12.63;5.72;;;;;;;;;;5054074;28;20084;-41
2022/12/30 15:26:14;;;;;;;11.25;5.65;;;;;;;;;;5054066;28;20032;-41
2022/12/30 15:28:40;;;;;;;12.80;6.32;;;;;;;;;;5052843;28;20017;-41
2022/12/30 15:31:14;;;;;;;11.98;5.70;;;;;;;;;;5053878;28;20040;-41
2022/12/30 15:33:53;;;;;;;10.90;5.88;;;;;;;;;;5054256;28;20127;-41
2022/12/30 15:36:20;;;;;;;7.80;5.10;;;;;;;;;;5053732;28;20130;-41